Time;durP1;ratioP1;P1;durP2;ratioP2;P2;SDS_P1;SDS_P2;PMS_P1;PMS_P2;Temp;Humidity;BMP_temperature;BMP_pressure;BME280_temperature;BME280_humidity;BME280_pressure;Samples;Min_cycle;Max_cycle;Signal;HPM_P1;HPM_P2
2022/08/18 00:01:23;;;;;;;19.40;15.60;;;;;;;19.82;80.95;98082.88;106139;1278;138568;-77
2022/08/18 00:03:50;;;;;;;19.50;16.60;;;;;;;19.76;81.32;98080.83;106046;1278;22604;-78
2022/08/18 00:06:17;;;;;;;19.60;17.60;;;;;;;19.73;81.74;98081.60;105964;1277;22541;-77
2022/08/18 00:08:44;;;;;;;22.30;17.70;;;;;;;19.71;81.97;98086.83;105895;1277;138528;-78
2022/08/18 00:11:10;;;;;;;19.10;17.10;;;;;;;19.69;82.29;98085.95;106308;1277;22589;-77
2022/08/18 00:13:37;;;;;;;19.70;17.40;;;;;;;19.68;82.62;98086.36;105757;1280;138666;-78
2022/08/18 00:16:03;;;;;;;20.20;17.80;;;;;;;19.68;82.81;98087.84;106287;1277;22560;-77
2022/08/18 00:18:30;;;;;;;22.20;18.10;;;;;;;19.67;82.93;98090.97;106417;1277;139251;-77
2022/08/18 00:20:56;;;;;;;20.60;18.40;;;;;;;19.67;83.00;98095.55;106326;1277;22632;-78
2022/08/18 00:23:23;;;;;;;22.10;19.10;;;;;;;19.67;83.26;98097.70;106628;1277;22586;-78
2022/08/18 00:25:49;;;;;;;22.60;18.70;;;;;;;19.67;83.60;98093.66;106173;1277;138828;-78
2022/08/18 00:28:16;;;;;;;21.80;18.30;;;;;;;19.66;83.65;98087.34;106130;1277;25528;-77
2022/08/18 00:30:42;;;;;;;21.40;18.20;;;;;;;19.64;83.79;98083.14;105711;1277;139123;-77
2022/08/18 00:33:10;;;;;;;24.60;18.80;;;;;;;19.60;83.88;98080.19;106521;1276;23265;-77
2022/08/18 00:35:38;;;;;;;22.60;18.60;;;;;;;19.59;84.24;98079.56;105839;1275;24264;-79
2022/08/18 00:38:07;;;;;;;21.40;18.40;;;;;;;19.59;84.40;98081.21;105966;1276;139025;-77
2022/08/18 00:40:50;;;;;;;23.60;19.90;;;;;;;19.59;84.53;98091.33;106234;1276;23323;-78
2022/08/18 00:43:26;;;;;;;26.00;21.20;;;;;;;19.60;84.84;98092.80;105905;1277;138751;-79
2022/08/18 00:45:53;;;;;;;22.90;18.80;;;;;;;19.62;84.85;98100.20;106043;1277;24201;-78
2022/08/18 00:48:20;;;;;;;18.70;16.80;;;;;;;19.58;84.29;98099.02;105904;1277;25305;-78
2022/08/18 00:50:56;;;;;;;21.10;17.60;;;;;;;19.42;83.50;98096.10;105947;1276;138349;-78
2022/08/18 00:53:38;;;;;;;24.40;18.60;;;;;;;19.30;83.85;98092.65;105920;1278;23917;-78
2022/08/18 00:56:12;;;;;;;22.70;18.60;;;;;;;19.26;84.37;98086.64;106903;1276;138848;-79
2022/08/18 00:59:04;;;;;;;23.60;20.00;;;;;;;19.24;84.74;98080.55;105983;1276;22822;-78
2022/08/18 01:01:32;;;;;;;22.70;20.20;;;;;;;19.24;85.26;98075.09;105834;1277;138541;-78
2022/08/18 01:04:29;;;;;;;29.10;22.80;;;;;;;19.24;85.67;98072.77;106133;1277;22694;-77
2022/08/18 01:07:00;;;;;;;27.40;22.80;;;;;;;19.27;86.24;98070.31;105966;1277;138728;-79
2022/08/18 01:09:27;;;;;;;32.10;24.20;;;;;;;19.31;86.55;98071.05;106173;1277;22535;-80
2022/08/18 01:11:55;;;;;;;26.30;23.50;;;;;;;19.34;86.78;98070.76;105964;1278;22750;-78
2022/08/18 01:14:22;;;;;;;27.60;22.70;;;;;;;19.38;86.78;98071.49;105932;1276;138622;-78
2022/08/18 01:22:25;;;;;;;27.20;22.00;;;;;;;19.42;86.25;98064.23;106180;1277;30424;-78
2022/08/18 01:27:36;;;;;;;25.10;21.90;;;;;;;19.36;86.23;98062.42;106067;1277;22843;-79
2022/08/18 01:30:09;;;;;;;22.20;19.90;;;;;;;19.36;86.69;98054.59;106171;1277;22940;-79
2022/08/18 01:32:37;;;;;;;26.30;23.10;;;;;;;19.35;87.21;98049.69;105838;1277;138770;-79
2022/08/18 01:35:07;;;;;;;26.60;21.70;;;;;;;19.37;87.54;98049.84;105894;1277;25359;-79
2022/08/18 01:37:35;;;;;;;27.50;22.60;;;;;;;19.37;87.73;98054.02;106122;1277;138585;-78
2022/08/18 01:40:05;;;;;;;25.40;21.10;;;;;;;19.37;87.72;98056.17;106247;1277;22708;-79
2022/08/18 01:42:32;;;;;;;27.10;23.30;;;;;;;19.39;87.86;98059.06;106382;1276;139382;-79
2022/08/18 01:44:59;;;;;;;27.20;22.70;;;;;;;19.40;87.93;98056.60;106097;1276;22572;-78
2022/08/18 01:47:27;;;;;;;25.80;23.10;;;;;;;19.41;88.07;98050.62;106169;1276;25018;-79
2022/08/18 01:49:55;;;;;;;25.00;21.90;;;;;;;19.41;88.01;98046.48;106183;1276;138920;-79
2022/08/18 01:52:22;;;;;;;29.10;23.90;;;;;;;19.39;88.26;98049.23;106112;1277;24198;-79
2022/08/18 01:54:50;;;;;;;25.80;23.10;;;;;;;19.37;88.29;98047.01;105841;1277;138810;-78
2022/08/18 01:57:18;;;;;;;29.10;24.90;;;;;;;19.37;88.38;98052.08;105975;1277;22555;-79
2022/08/18 01:59:44;;;;;;;20.90;18.70;;;;;;;19.37;88.18;98055.11;106089;1277;24259;-79
2022/08/18 02:02:15;;;;;;;22.60;18.10;;;;;;;19.27;86.21;98051.66;106259;1276;138459;-79
2022/08/18 02:04:42;;;;;;;25.40;20.60;;;;;;;19.10;85.72;98058.40;106334;1277;24512;-79
2022/08/18 02:07:11;;;;;;;25.20;21.20;;;;;;;18.97;86.23;98057.24;106221;1278;138835;-79
2022/08/18 02:09:40;;;;;;;28.30;22.60;;;;;;;18.91;86.76;98060.92;106118;1276;22591;-79
2022/08/18 02:12:07;;;;;;;24.90;21.70;;;;;;;18.87;86.86;98062.70;106440;1276;22592;-79
2022/08/18 02:14:35;;;;;;;24.90;22.20;;;;;;;18.85;87.10;98059.44;106309;1277;139058;-79
2022/08/18 02:17:05;;;;;;;25.90;22.50;;;;;;;18.85;87.47;98055.09;105941;1278;25348;-79
2022/08/18 02:19:46;;;;;;;30.40;24.30;;;;;;;18.86;88.04;98054.84;105770;1277;139099;-78
2022/08/18 02:22:17;;;;;;;27.10;23.50;;;;;;;18.88;88.27;98049.56;106750;1277;25474;-79
2022/08/18 02:24:45;;;;;;;29.30;24.60;;;;;;;18.90;88.53;98048.67;106046;1277;138699;-78
2022/08/18 02:27:14;;;;;;;29.20;24.70;;;;;;;18.92;88.77;98044.95;106194;1277;23198;-79
2022/08/18 02:29:41;;;;;;;28.50;24.60;;;;;;;18.93;88.88;98043.55;106254;1277;24220;-79
2022/08/18 02:32:08;;;;;;;31.70;26.50;;;;;;;18.95;88.84;98038.36;106160;1277;138595;-79
2022/08/18 02:34:35;;;;;;;34.40;28.50;;;;;;;18.98;89.02;98041.50;106114;1277;22572;-78
2022/08/18 02:37:03;;;;;;;29.70;26.50;;;;;;;19.00;89.32;98042.89;106088;1277;138747;-78
2022/08/18 02:39:32;;;;;;;31.40;25.40;;;;;;;19.02;89.08;98035.02;105985;1277;24245;-79
2022/08/18 02:41:59;;;;;;;32.60;27.40;;;;;;;19.04;89.03;98039.94;106492;1278;22667;-79
2022/08/18 02:44:25;;;;;;;31.80;25.90;;;;;;;19.05;89.14;98039.30;106233;1277;138597;-79
2022/08/18 02:46:53;;;;;;;30.30;25.70;;;;;;;19.06;89.00;98034.95;106374;1277;24397;-78
2022/08/18 02:49:20;;;;;;;32.30;27.70;;;;;;;19.07;88.92;98028.61;105909;1278;139114;-79
2022/08/18 02:51:47;;;;;;;31.00;26.20;;;;;;;19.07;89.09;98024.73;106234;1277;23319;-79
2022/08/18 02:54:13;;;;;;;32.50;25.90;;;;;;;19.07;88.87;98032.02;106139;1277;30572;-79
2022/08/18 02:56:41;;;;;;;28.00;22.80;;;;;;;19.07;88.70;98036.33;105874;1277;138776;-79
2022/08/18 02:59:10;;;;;;;26.70;23.80;;;;;;;19.03;88.04;98034.45;106262;1277;22554;-79
2022/08/18 03:01:41;;;;;;;30.30;24.30;;;;;;;18.97;87.87;98036.49;106066;1277;139185;-79
2022/08/18 03:04:11;;;;;;;29.00;23.80;;;;;;;18.92;87.76;98036.09;106043;1277;22695;-79
2022/08/18 03:06:39;;;;;;;30.30;24.10;;;;;;;18.89;87.81;98032.20;105954;1277;138823;-79
2022/08/18 03:09:08;;;;;;;27.80;23.40;;;;;;;18.87;88.09;98030.05;106333;1276;22550;-79
2022/08/18 03:11:35;;;;;;;29.00;23.70;;;;;;;18.86;88.34;98030.56;106066;1277;25350;-79
2022/08/18 03:14:07;;;;;;;26.40;23.60;;;;;;;18.85;88.29;98024.41;106098;1277;138625;-80
2022/08/18 03:16:36;;;;;;;29.70;24.70;;;;;;;18.86;88.69;98035.72;106254;1274;24253;-79
2022/08/18 03:19:03;;;;;;;27.30;24.40;;;;;;;18.86;88.88;98043.55;106423;1277;138659;-79
2022/08/18 03:21:34;;;;;;;29.20;23.30;;;;;;;18.88;88.91;98046.15;106359;1277;24301;-79
2022/08/18 03:24:02;;;;;;;26.80;22.80;;;;;;;18.88;88.97;98048.02;106340;1277;22583;-79
2022/08/18 03:26:30;;;;;;;30.40;24.30;;;;;;;18.90;88.97;98049.73;106388;1277;138985;-78
2022/08/18 03:28:58;;;;;;;27.10;23.80;;;;;;;18.91;89.04;98050.44;106330;1277;22553;-81
2022/08/18 03:31:28;;;;;;;26.70;23.80;;;;;;;18.92;89.30;98055.64;106689;1276;138888;-79
2022/08/18 03:33:58;;;;;;;26.10;23.30;;;;;;;18.94;89.21;98062.66;106428;1277;22576;-79
2022/08/18 03:36:27;;;;;;;28.10;24.40;;;;;;;18.95;89.29;98066.90;106194;1277;138762;-81
2022/08/18 03:38:54;;;;;;;24.80;21.90;;;;;;;18.96;89.10;98064.50;106498;1278;22582;-78
2022/08/18 03:41:23;;;;;;;24.00;21.50;;;;;;;18.89;87.91;98063.89;105891;1277;24501;-79
2022/08/18 03:43:51;;;;;;;24.80;22.20;;;;;;;18.82;87.69;98066.48;106995;1277;138677;-79
2022/08/18 03:46:19;;;;;;;26.90;21.90;;;;;;;18.78;87.69;98069.64;107000;1277;22798;-80
2022/08/18 03:48:46;;;;;;;23.70;21.10;;;;;;;18.76;87.81;98073.10;106303;1277;139528;-80
2022/08/18 03:51:16;;;;;;;27.20;21.70;;;;;;;18.77;87.86;98082.05;106686;1274;22573;-79
2022/08/18 03:53:45;;;;;;;24.20;21.30;;;;;;;18.77;87.71;98090.55;106296;1277;22716;-79
2022/08/18 03:56:15;;;;;;;21.60;19.30;;;;;;;18.76;87.41;98090.56;106527;1277;138536;-79
2022/08/18 03:58:52;;;;;;;22.80;20.40;;;;;;;18.74;87.41;98096.38;106258;1277;23467;-80
2022/08/18 04:01:23;;;;;;;22.10;19.90;;;;;;;18.73;87.22;98091.95;106469;1276;139012;-79
2022/08/18 04:03:55;;;;;;;22.40;20.00;;;;;;;18.71;87.14;98092.03;106064;1278;24299;-79
2022/08/18 04:06:28;;;;;;;26.20;20.80;;;;;;;18.70;87.19;98093.38;106267;1274;24315;-79
2022/08/18 04:08:56;;;;;;;23.20;20.70;;;;;;;18.70;87.57;98093.48;106018;1277;23526;-79
2022/08/18 04:11:24;;;;;;;28.30;23.30;;;;;;;18.71;87.69;98099.10;106589;1275;25417;-79
2022/08/18 04:13:51;;;;;;;26.50;23.00;;;;;;;18.73;88.01;98102.71;106067;1277;138696;-79
2022/08/18 04:16:18;;;;;;;29.30;24.30;;;;;;;18.76;88.22;98105.51;106001;1277;25287;-80
2022/08/18 04:18:44;;;;;;;27.20;22.20;;;;;;;18.79;88.22;98113.77;106046;1277;139702;-79
2022/08/18 04:21:12;;;;;;;25.90;23.20;;;;;;;18.82;88.23;98113.30;105029;1277;1488126;-79
2022/08/18 04:23:40;;;;;;;23.80;21.30;;;;;;;18.85;88.42;98114.52;106805;1275;25422;-79
2022/08/18 04:26:08;;;;;;;24.60;21.90;;;;;;;18.89;88.56;98111.67;105983;1278;138568;-79
2022/08/18 04:28:35;;;;;;;30.40;22.80;;;;;;;18.92;88.71;98110.45;106098;1279;22608;-79
2022/08/18 04:31:11;;;;;;;27.30;23.40;;;;;;;18.95;88.68;98111.87;105998;1278;138972;-80
2022/08/18 04:33:39;;;;;;;28.70;24.50;;;;;;;18.99;88.80;98114.11;106535;1279;22584;-79
2022/08/18 04:36:08;;;;;;;31.50;26.20;;;;;;;19.02;89.11;98117.69;106217;1278;23284;-79
2022/08/18 04:38:40;;;;;;;26.90;24.10;;;;;;;19.06;89.39;98118.27;106456;1277;138811;-79
2022/08/18 04:41:08;;;;;;;29.30;23.50;;;;;;;19.10;89.41;98119.12;106192;1277;24267;-79
2022/08/18 04:43:35;;;;;;;26.60;23.40;;;;;;;19.11;88.88;98120.30;106393;1274;138686;-79
2022/08/18 04:46:02;;;;;;;27.80;23.50;;;;;;;19.11;88.60;98122.58;106074;1278;22550;-79
2022/08/18 04:48:34;;;;;;;32.80;23.60;;;;;;;19.11;88.60;98119.98;106157;1278;138850;-80
2022/08/18 04:51:10;;;;;;;28.30;24.70;;;;;;;19.13;88.83;98122.63;106175;1277;23840;-79
2022/08/18 04:53:44;;;;;;;30.80;25.20;;;;;;;19.17;89.24;98121.28;106344;1278;22700;-79
2022/08/18 04:56:20;;;;;;;36.00;27.80;;;;;;;19.23;89.76;98127.23;106601;1277;139102;-79
2022/08/18 04:58:51;;;;;;;30.70;27.30;;;;;;;19.27;90.08;98128.84;106260;1277;22570;-79
2022/08/18 05:01:20;;;;;;;32.80;29.00;;;;;;;19.34;90.31;98129.58;106197;1277;138696;-79
2022/08/18 05:03:49;;;;;;;37.30;30.70;;;;;;;19.39;90.72;98125.38;106164;1280;22926;-79
2022/08/18 05:06:17;;;;;;;35.60;29.80;;;;;;;19.45;90.89;98125.17;106358;1275;22825;-79
2022/08/18 05:08:45;;;;;;;36.10;30.80;;;;;;;19.50;91.17;98123.39;106037;1279;139271;-79
2022/08/18 05:11:13;;;;;;;37.40;31.30;;;;;;;19.57;91.23;98125.23;106852;1277;23538;-79
2022/08/18 05:13:41;;;;;;;39.30;31.60;;;;;;;19.63;91.31;98124.66;106603;1278;138993;-79
2022/08/18 05:16:08;;;;;;;35.60;31.40;;;;;;;19.68;91.36;98119.34;106426;1274;24371;-79
2022/08/18 05:18:39;;;;;;;37.40;31.80;;;;;;;19.73;91.39;98120.05;106103;1275;138614;-79
2022/08/18 05:21:15;;;;;;;37.30;31.70;;;;;;;19.80;91.62;98123.08;106049;1277;24377;-79
2022/08/18 05:23:43;;;;;;;35.80;30.20;;;;;;;19.86;91.37;98126.17;106174;1277;23757;-79
2022/08/18 05:26:12;;;;;;;39.50;32.50;;;;;;;19.93;91.54;98126.22;106767;1276;138546;-79
2022/08/18 05:28:40;;;;;;;34.80;31.00;;;;;;;19.98;91.46;98125.86;106141;1276;22613;-79
2022/08/18 05:31:19;;;;;;;34.60;29.10;;;;;;;20.05;91.39;98126.30;106347;1280;139475;-78
2022/08/18 05:33:47;;;;;;;37.50;29.10;;;;;;;20.12;91.34;98123.25;106336;1277;22659;-79
2022/08/18 05:36:19;;;;;;;33.50;29.80;;;;;;;20.19;91.29;98123.45;106337;1277;22544;-80
2022/08/18 05:38:58;;;;;;;34.10;28.60;;;;;;;20.25;91.20;98127.49;106498;1277;138638;-80
2022/08/18 05:41:36;;;;;;;30.60;27.20;;;;;;;20.32;91.02;98132.17;106529;1278;22656;-79
2022/08/18 05:44:04;;;;;;;32.30;27.90;;;;;;;20.37;90.69;98137.41;105906;1280;139675;-79
2022/08/18 05:46:47;;;;;;;33.40;27.20;;;;;;;20.43;90.67;98138.48;106234;1278;22627;-80
2022/08/18 05:49:16;;;;;;;30.40;26.80;;;;;;;20.50;90.48;98141.50;106349;1277;138969;-80
2022/08/18 05:51:58;;;;;;;32.40;26.40;;;;;;;20.57;90.36;98142.36;106995;1277;22703;-79
2022/08/18 05:57:17;;;;;;;29.50;26.30;;;;;;;20.73;90.08;98136.26;106769;1277;22563;-79
2022/08/18 05:59:46;;;;;;;28.70;24.20;;;;;;;20.80;89.96;98140.10;106509;1277;22570;-80
2022/08/18 06:02:22;;;;;;;29.70;24.50;;;;;;;20.88;89.77;98142.48;106455;1278;139142;-79
2022/08/18 06:04:52;;;;;;;28.10;24.70;;;;;;;20.95;89.61;98139.23;106379;1277;22550;-79
2022/08/18 06:07:55;;;;;;;27.40;24.30;;;;;;;21.00;89.17;98137.30;106419;1278;138510;-79
2022/08/18 06:10:22;;;;;;;28.00;23.50;;;;;;;21.07;88.90;98133.56;106073;1281;23195;-79
2022/08/18 06:12:54;;;;;;;26.70;22.70;;;;;;;21.14;88.82;98129.86;105949;1278;138945;-80
2022/08/18 06:15:26;;;;;;;24.70;21.60;;;;;;;21.21;88.64;98136.23;106281;1277;27262;-78
2022/08/18 06:18:08;;;;;;;27.50;21.20;;;;;;;21.28;88.27;98134.41;106159;1278;22570;-79
2022/08/18 06:21:08;;;;;;;24.20;20.00;;;;;;;21.36;88.14;98136.91;106000;1277;139212;-79
2022/08/18 06:23:41;;;;;;;24.10;20.50;;;;;;;21.46;87.66;98139.54;106475;1277;22560;-79
2022/08/18 06:26:22;;;;;;;21.60;19.30;;;;;;;21.54;87.54;98139.13;106471;1277;138671;-79
2022/08/18 06:29:09;;;;;;;22.10;19.90;;;;;;;21.63;87.07;98139.30;106160;1277;25387;-79
2022/08/18 06:31:51;;;;;;;21.40;19.00;;;;;;;21.71;86.97;98137.55;106062;1277;138548;-82
2022/08/18 06:34:28;;;;;;;23.80;19.30;;;;;;;21.82;86.69;98139.29;106381;1277;22586;-81
2022/08/18 06:37:10;;;;;;;20.70;18.60;;;;;;;21.91;86.49;98137.40;106372;1277;138889;-79
2022/08/18 06:39:40;;;;;;;20.50;18.40;;;;;;;22.01;86.05;98134.91;106422;1277;22629;-81
2022/08/18 06:42:07;;;;;;;20.60;18.40;;;;;;;22.09;85.64;98135.58;106735;1277;24759;-81
2022/08/18 06:44:44;;;;;;;22.70;17.40;;;;;;;22.18;85.25;98138.89;106231;1277;139362;-80
2022/08/18 06:47:25;;;;;;;21.30;18.50;;;;;;;22.27;84.86;98143.33;106300;1277;22579;-81
2022/08/18 06:50:19;;;;;;;20.80;17.60;;;;;;;22.35;84.61;98141.33;106226;1277;138989;-79
2022/08/18 06:53:00;;;;;;;20.60;17.60;;;;;;;22.45;84.25;98140.32;106445;1277;24231;-81
2022/08/18 06:55:35;;;;;;;21.20;17.10;;;;;;;22.54;84.21;98145.70;106225;1274;138756;-81
2022/08/18 06:58:18;;;;;;;19.70;17.60;;;;;;;22.65;84.20;98150.35;106325;1277;24322;-80
2022/08/18 07:00:51;;;;;;;19.90;16.90;;;;;;;22.77;84.02;98152.26;106125;1277;138906;-78
2022/08/18 07:03:21;;;;;;;21.50;17.10;;;;;;;22.85;83.00;98152.77;106287;1277;25405;-76
2022/08/18 07:06:05;;;;;;;19.60;16.50;;;;;;;22.92;82.20;98159.27;106129;1277;22553;-76
2022/08/18 07:08:35;;;;;;;18.60;16.70;;;;;;;23.01;81.80;98162.23;106046;1274;138696;-79
2022/08/18 07:11:29;;;;;;;18.50;16.60;;;;;;;23.09;81.16;98163.30;106226;1277;25245;-77
2022/08/18 07:14:12;;;;;;;20.30;16.70;;;;;;;23.17;80.55;98166.30;106431;1274;139390;-77
2022/08/18 07:16:39;;;;;;;21.00;16.60;;;;;;;23.25;80.13;98166.38;107084;1274;23154;-77
2022/08/18 07:19:19;;;;;;;18.10;16.00;;;;;;;23.32;79.87;98163.82;106282;1277;139109;-76
2022/08/18 07:22:05;;;;;;;17.60;15.50;;;;;;;23.41;79.73;98161.85;106498;1277;23364;-78
2022/08/18 07:24:39;;;;;;;19.60;14.90;;;;;;;23.51;78.92;98165.03;106103;1277;139049;-78
2022/08/18 07:27:16;;;;;;;18.80;14.30;;;;;;;23.59;78.43;98161.27;106210;1277;26522;-77
2022/08/18 07:30:05;;;;;;;16.00;14.40;;;;;;;23.67;77.73;98160.07;106397;1277;31902;-77
2022/08/18 07:32:52;;;;;;;18.60;14.80;;;;;;;23.76;77.58;98160.17;105843;1277;138977;-76
2022/08/18 07:35:31;;;;;;;15.10;13.50;;;;;;;23.86;77.12;98162.80;106647;1277;22565;-77
2022/08/18 07:38:50;;;;;;;17.90;13.70;;;;;;;23.95;76.35;98160.33;106146;1277;138990;-77
2022/08/18 07:42:09;;;;;;;14.40;12.80;;;;;;;24.07;75.40;98164.11;106042;1277;24759;-76
2022/08/18 07:44:48;;;;;;;14.50;13.00;;;;;;;24.15;75.42;98162.76;106007;1277;138524;-76
2022/08/18 07:47:25;;;;;;;13.90;12.30;;;;;;;24.25;74.84;98160.08;106462;1275;23251;-76
2022/08/18 07:49:57;;;;;;;17.70;12.50;;;;;;;24.36;74.70;98161.34;106085;1278;139146;-77
2022/08/18 07:52:36;;;;;;;13.20;11.90;;;;;;;24.47;74.32;98158.05;106204;1277;23938;-76
2022/08/18 07:55:10;;;;;;;12.90;10.90;;;;;;;24.57;73.37;98153.02;105799;1277;139449;-77
2022/08/18 07:58:01;;;;;;;15.10;12.30;;;;;;;24.65;73.02;98147.41;106130;1277;24226;-76
2022/08/18 08:00:47;;;;;;;15.20;11.60;;;;;;;24.75;72.60;98139.57;106300;1277;139168;-76
2022/08/18 08:03:31;;;;;;;16.00;11.70;;;;;;;24.88;72.26;98138.45;106144;1277;25454;-76
2022/08/18 08:06:23;;;;;;;14.30;10.60;;;;;;;24.99;71.81;98139.23;105988;1277;22603;-77
2022/08/18 08:09:12;;;;;;;14.20;10.40;;;;;;;25.12;70.86;98134.61;106333;1277;23946;-76
2022/08/18 08:12:07;;;;;;;17.10;10.60;;;;;;;25.26;70.56;98130.83;106383;1277;22541;-77
2022/08/18 08:14:46;;;;;;;11.30;10.10;;;;;;;25.40;69.78;98137.04;105934;1277;138517;-77
2022/08/18 08:17:41;;;;;;;11.00;9.90;;;;;;;25.53;69.07;98140.70;105973;1277;22554;-76
2022/08/18 08:20:22;;;;;;;12.70;9.90;;;;;;;25.65;67.99;98136.41;106389;1275;138355;-76
2022/08/18 08:23:08;;;;;;;12.70;10.40;;;;;;;25.75;67.85;98137.29;105876;1277;22677;-76
2022/08/18 08:25:59;;;;;;;13.30;9.70;;;;;;;25.88;67.34;98135.00;106009;1277;139029;-76
2022/08/18 08:28:28;;;;;;;11.50;9.40;;;;;;;25.99;66.23;98135.10;106398;1274;24293;-76
2022/08/18 08:30:58;;;;;;;11.10;9.90;;;;;;;26.08;65.71;98137.92;105827;1277;138017;-76
2022/08/18 08:33:37;;;;;;;12.80;10.20;;;;;;;26.17;64.78;98131.70;106227;1277;22541;-76
2022/08/18 08:36:13;;;;;;;14.20;9.60;;;;;;;26.24;64.45;98131.02;106178;1277;22552;-77
2022/08/18 08:39:10;;;;;;;12.10;10.10;;;;;;;26.34;64.24;98127.38;105876;1277;137528;-76
2022/08/18 08:41:48;;;;;;;12.60;10.30;;;;;;;26.47;63.96;98130.11;106283;1277;30282;-77
2022/08/18 08:44:33;;;;;;;14.60;9.80;;;;;;;26.57;63.73;98125.84;106214;1277;138125;-76
2022/08/18 08:47:07;;;;;;;12.30;9.90;;;;;;;26.69;63.31;98135.34;106240;1277;22596;-76
2022/08/18 08:49:47;;;;;;;11.00;9.80;;;;;;;26.77;62.17;98134.98;106141;1277;137656;-75
2022/08/18 08:52:25;;;;;;;9.40;8.40;;;;;;;26.85;61.87;98132.86;106272;1277;30598;-76
2022/08/18 08:55:20;;;;;;;11.40;9.60;;;;;;;26.94;61.28;98138.44;105825;1277;138294;-75
2022/08/18 08:57:57;;;;;;;11.30;9.70;;;;;;;27.07;61.42;98138.02;106382;1276;22580;-76
2022/08/18 09:00:24;;;;;;;13.30;9.90;;;;;;;27.17;60.43;98138.98;106014;1277;138350;-76
2022/08/18 09:02:59;;;;;;;11.60;9.80;;;;;;;27.23;60.59;98139.95;105978;1277;25375;-76
2022/08/18 09:05:33;;;;;;;11.30;10.10;;;;;;;27.34;60.39;98142.03;105851;1277;22574;-76
2022/08/18 09:08:14;;;;;;;10.60;9.50;;;;;;;27.47;60.37;98151.28;105734;1278;138002;-75
2022/08/18 09:10:58;;;;;;;14.60;9.90;;;;;;;27.61;59.96;98158.00;106139;1277;23963;-76
2022/08/18 09:13:52;;;;;;;13.60;9.70;;;;;;;27.74;59.28;98152.34;106157;1277;137562;-76
2022/08/18 09:16:38;;;;;;;10.10;9.10;;;;;;;27.86;58.67;98152.92;105936;1277;24224;-76
2022/08/18 09:19:28;;;;;;;13.40;10.40;;;;;;;27.95;58.34;98154.17;105752;1275;138324;-76
2022/08/18 09:22:09;;;;;;;13.40;9.90;;;;;;;28.08;58.30;98157.63;106037;1274;23911;-76
2022/08/18 09:24:56;;;;;;;11.70;10.50;;;;;;;28.19;57.41;98156.27;106143;1274;138188;-76
2022/08/18 09:27:35;;;;;;;13.40;10.10;;;;;;;28.29;56.94;98154.22;106262;1274;22551;-76
2022/08/18 09:30:06;;;;;;;11.40;10.10;;;;;;;28.40;56.89;98149.52;106058;1277;22582;-76
2022/08/18 09:32:54;;;;;;;13.30;10.60;;;;;;;28.51;56.81;98151.27;106205;1274;137756;-76
2022/08/18 09:35:42;;;;;;;12.40;11.00;;;;;;;28.63;56.59;98153.98;106231;1277;22554;-76
2022/08/18 09:44:08;;;;;;;13.80;10.50;;;;;;;28.85;54.52;98159.73;106018;1277;138268;-77
2022/08/18 09:46:41;;;;;;;11.00;9.90;;;;;;;28.93;54.62;98155.05;106037;1274;22575;-76
2022/08/18 09:49:25;;;;;;;11.60;10.40;;;;;;;29.02;53.90;98156.39;105977;1274;137889;-76
2022/08/18 09:51:55;;;;;;;15.00;10.30;;;;;;;29.05;53.56;98157.34;106223;1277;25434;-76
2022/08/18 09:54:27;;;;;;;;;;;;;;;29.08;53.71;98155.14;106319;1274;22570;-76
2022/08/18 09:57:17;;;;;;;10.70;9.60;;;;;;;29.13;53.63;98154.52;106291;1274;22615;-76
2022/08/18 09:59:43;;;;;;;12.00;10.60;;;;;;;29.21;54.08;98156.17;106047;1274;25210;-76
2022/08/18 10:02:30;;;;;;;13.00;10.50;;;;;;;29.31;53.70;98154.73;106203;1275;138012;-76
2022/08/18 10:05:19;;;;;;;12.00;10.70;;;;;;;29.39;53.06;98157.42;106288;1277;31534;-76
2022/08/18 10:08:04;;;;;;;11.80;9.80;;;;;;;29.46;52.85;98159.52;105981;1277;138305;-76
2022/08/18 10:10:49;;;;;;;11.90;9.90;;;;;;;29.59;52.60;98161.70;105898;1277;22615;-76
2022/08/18 10:13:39;;;;;;;12.10;9.50;;;;;;;29.69;52.15;98161.78;105868;1274;138202;-77
2022/08/18 10:16:24;;;;;;;14.20;10.30;;;;;;;29.76;50.90;98162.06;106149;1277;23035;-77
2022/08/18 10:19:20;;;;;;;11.50;10.10;;;;;;;29.84;51.88;98159.02;106085;1276;138365;-76
2022/08/18 10:22:00;;;;;;;11.10;9.90;;;;;;;29.95;50.91;98149.39;106534;1275;22587;-76
2022/08/18 10:24:52;;;;;;;11.70;10.30;;;;;;;30.03;50.51;98148.34;106226;1274;138241;-77
2022/08/18 10:27:36;;;;;;;11.60;10.10;;;;;;;30.11;50.77;98141.86;106082;1274;25392;-76
2022/08/18 10:30:04;;;;;;;13.70;10.20;;;;;;;30.19;50.40;98142.69;106331;1277;22572;-76
2022/08/18 10:32:42;;;;;;;;;;;;;;;30.30;50.24;98140.98;106301;1277;138202;-76
2022/08/18 10:35:34;;;;;;;10.60;8.70;;;;;;;30.38;49.35;98135.22;106108;1275;25315;-75
2022/08/18 10:38:24;;;;;;;9.40;8.30;;;;;;;30.49;48.99;98128.98;106198;1277;138454;-77
2022/08/18 10:41:03;;;;;;;10.30;8.70;;;;;;;30.63;48.77;98121.32;105966;1277;25163;-78
2022/08/18 10:43:46;;;;;;;13.40;9.70;;;;;;;30.75;48.20;98122.15;106235;1277;137578;-77
2022/08/18 10:46:20;;;;;;;11.80;9.10;;;;;;;30.85;47.99;98122.40;106164;1277;29593;-77
2022/08/18 10:49:25;;;;;;;10.40;8.70;;;;;;;30.92;47.27;98121.10;106217;1276;137758;-77
2022/08/18 10:52:07;;;;;;;11.00;8.50;;;;;;;30.96;46.44;98112.47;106252;1277;22573;-77
2022/08/18 10:54:59;;;;;;;10.60;7.90;;;;;;;31.01;46.44;98105.44;105942;1276;138564;-76
2022/08/18 10:57:49;;;;;;;12.80;8.30;;;;;;;31.08;45.93;98108.70;105901;1277;23007;-77
2022/08/18 11:00:21;;;;;;;11.30;7.80;;;;;;;31.14;46.34;98108.67;106591;1277;22573;-77
2022/08/18 11:02:55;;;;;;;10.40;7.80;;;;;;;31.21;46.31;98105.74;106204;1277;25241;-77
2022/08/18 11:05:25;;;;;;;9.70;7.60;;;;;;;31.30;45.96;98105.07;106165;1277;22847;-77
2022/08/18 11:08:02;;;;;;;12.70;7.10;;;;;;;31.41;46.05;98104.33;106443;1274;137810;-75
2022/08/18 11:10:37;;;;;;;;;;;;;;;31.54;45.73;98105.80;106134;1274;22707;-76
2022/08/18 11:13:06;;;;;;;9.50;6.90;;;;;;;31.66;44.93;98098.62;106124;1274;124686;-76
2022/08/18 11:15:54;;;;;;;10.10;7.80;;;;;;;31.80;44.06;98094.02;106781;1277;22541;-76
2022/08/18 11:18:38;;;;;;;10.90;8.90;;;;;;;31.87;43.67;98093.23;106681;1277;22648;-76
2022/08/18 11:21:33;;;;;;;9.10;7.60;;;;;;;31.90;44.00;98088.42;106178;1277;22767;-76
2022/08/18 11:24:11;;;;;;;8.60;7.50;;;;;;;31.93;44.27;98086.49;106582;1276;22674;-76
2022/08/18 11:26:52;;;;;;;9.40;7.40;;;;;;;32.01;44.18;98088.94;105843;1277;137470;-76
2022/08/18 11:29:54;;;;;;;12.30;7.60;;;;;;;32.03;43.61;98087.01;106300;1274;24415;-76
2022/08/18 11:32:59;;;;;;;9.60;7.60;;;;;;;32.07;43.80;98087.37;106555;1277;22639;-76
2022/08/18 11:35:31;;;;;;;9.30;8.10;;;;;;;32.09;43.24;98090.60;106390;1274;22566;-76
2022/08/18 11:38:02;;;;;;;7.60;6.90;;;;;;;32.10;43.26;98082.08;106376;1276;137798;-76
2022/08/18 11:40:40;;;;;;;9.40;7.10;;;;;;;32.12;43.45;98072.98;106311;1277;25263;-76
2022/08/18 11:43:25;;;;;;;8.10;7.30;;;;;;;32.25;43.95;98064.87;106324;1280;138452;-76
2022/08/18 11:45:58;;;;;;;9.00;7.20;;;;;;;32.35;44.03;98064.08;106742;1277;22555;-77
2022/08/18 11:48:28;;;;;;;9.50;7.40;;;;;;;32.40;43.13;98064.80;106596;1277;22544;-77
2022/08/18 11:50:54;;;;;;;10.30;7.10;;;;;;;32.40;42.85;98059.34;106469;1277;137520;-77
2022/08/18 11:53:31;;;;;;;7.10;6.40;;;;;;;32.47;42.76;98060.63;106717;1277;23480;-76
2022/08/18 11:56:19;;;;;;;8.30;7.00;;;;;;;32.53;41.90;98055.23;106423;1277;137572;-76
2022/08/18 11:58:50;;;;;;;9.30;6.90;;;;;;;32.54;42.15;98053.05;106006;1277;24294;-76
2022/08/18 12:01:40;;;;;;;8.50;6.90;;;;;;;32.55;41.37;98050.16;106381;1277;138027;-77
2022/08/18 12:04:13;;;;;;;8.90;6.70;;;;;;;32.62;41.48;98046.09;106037;1277;25375;-76